createdAt,value
2022-12-09T00:01:59.319Z,91.79
2022-12-09T00:04:29.888Z,92.40
2022-12-09T00:07:00.490Z,92.33
2022-12-09T00:09:30.818Z,92.50
2022-12-09T00:12:01.009Z,92.63
2022-12-09T00:14:31.953Z,92.79
2022-12-09T00:17:05.484Z,92.79
2022-12-09T00:19:35.904Z,92.86
2022-12-09T00:22:06.190Z,93.15
2022-12-09T00:24:36.490Z,93.30
2022-12-09T00:27:07.385Z,93.36
2022-12-09T00:29:38.027Z,93.83
2022-12-09T00:32:11.349Z,94.06
2022-12-09T00:34:42.428Z,93.73
2022-12-09T00:37:12.821Z,93.57
2022-12-09T00:39:43.966Z,93.38
2022-12-09T00:42:14.456Z,93.58
2022-12-09T00:44:44.847Z,93.50
2022-12-09T00:47:18.098Z,93.15
2022-12-09T00:49:48.936Z,92.96
2022-12-09T00:52:19.233Z,93.29
2022-12-09T00:54:50.071Z,93.33
2022-12-09T00:57:20.819Z,92.97
2022-12-09T00:59:51.305Z,92.75
2022-12-09T01:02:24.608Z,92.88
2022-12-09T01:04:55.205Z,93.55
2022-12-09T01:07:25.689Z,94.03
2022-12-09T01:09:56.325Z,94.14
2022-12-09T01:12:26.773Z,93.89
2022-12-09T01:14:57.278Z,92.87
2022-12-09T01:17:30.527Z,93.22
2022-12-09T01:20:00.879Z,93.33
2022-12-09T01:22:32.241Z,93.64
2022-12-09T01:25:03.071Z,93.53
2022-12-09T01:27:34.425Z,93.54
2022-12-09T01:30:05.282Z,94.57
2022-12-09T01:32:38.544Z,94.55
2022-12-09T01:35:10.018Z,94.55
2022-12-09T01:37:41.077Z,94.57
2022-12-09T01:40:20.820Z,94.69
2022-12-09T01:42:53.508Z,94.53
2022-12-09T01:45:45.227Z,94.26
2022-12-09T01:48:20.948Z,94.60
2022-12-09T01:50:56.898Z,94.52
2022-12-09T01:53:29.761Z,94.77
2022-12-09T01:56:04.332Z,95.27
2022-12-09T01:58:35.700Z,95.32
2022-12-09T02:01:06.147Z,94.99
2022-12-09T02:03:39.868Z,94.73
2022-12-09T02:06:11.436Z,94.83
2022-12-09T02:08:43.207Z,94.46
2022-12-09T02:11:24.274Z,94.37
2022-12-09T02:14:03.369Z,94.10
2022-12-09T02:16:40.136Z,93.84
2022-12-09T02:19:29.098Z,93.70
2022-12-09T02:22:02.423Z,93.34
2022-12-09T02:24:45.584Z,92.96
2022-12-09T02:27:22.982Z,92.23
2022-12-09T02:30:09.539Z,92.19
2022-12-09T02:33:12.063Z,91.83
2022-12-09T02:35:51.106Z,91.69
2022-12-09T02:38:26.813Z,91.71
2022-12-09T02:41:03.470Z,91.54
2022-12-09T02:43:42.088Z,91.18
2022-12-09T02:46:18.262Z,90.27
2022-12-09T02:48:56.074Z,90.13
2022-12-09T02:51:34.600Z,89.66
2022-12-09T02:54:11.494Z,89.97
2022-12-09T02:56:46.757Z,89.71
2022-12-09T02:59:17.647Z,88.99
2022-12-09T03:02:00.142Z,89.03
2022-12-09T03:04:33.063Z,88.91
2022-12-09T03:07:18.191Z,88.58
2022-12-09T03:09:51.188Z,88.85
2022-12-09T03:12:23.601Z,88.98
2022-12-09T03:14:56.259Z,87.88
2022-12-09T03:17:34.161Z,88.09
2022-12-09T03:20:11.390Z,88.53
2022-12-09T03:22:49.197Z,87.99
2022-12-09T03:25:25.616Z,87.13
2022-12-09T03:28:04.677Z,86.66
2022-12-09T03:30:39.151Z,86.43
2022-12-09T03:33:11.597Z,84.92
2022-12-09T03:35:46.340Z,85.14
2022-12-09T03:38:22.815Z,84.66
2022-12-09T03:40:58.138Z,85.31
2022-12-09T03:43:33.537Z,85.72
2022-12-09T03:46:04.593Z,86.03
2022-12-09T03:48:35.891Z,85.65
2022-12-09T03:51:11.141Z,85.46
2022-12-09T03:53:49.236Z,85.18
2022-12-09T03:56:25.206Z,84.82
2022-12-09T03:58:58.470Z,84.52
2022-12-09T04:01:31.197Z,84.26
2022-12-09T04:04:01.692Z,84.17
2022-12-09T04:06:32.252Z,84.64
2022-12-09T04:09:05.950Z,85.09
2022-12-09T04:11:37.335Z,86.03
2022-12-09T04:14:13.747Z,86.78
2022-12-09T04:16:46.107Z,86.33
2022-12-09T04:19:16.732Z,83.18
2022-12-09T04:21:47.285Z,82.18
2022-12-09T04:24:20.351Z,83.58
2022-12-09T04:26:50.806Z,84.16
2022-12-09T04:29:21.235Z,82.20
2022-12-09T04:31:51.508Z,81.58
2022-12-09T04:34:22.050Z,82.00
2022-12-09T04:36:52.991Z,81.32
2022-12-09T04:39:26.584Z,80.79
2022-12-09T04:41:56.891Z,81.56
2022-12-09T04:44:27.375Z,83.70
2022-12-09T04:46:57.862Z,86.09
2022-12-09T04:49:28.312Z,87.52
2022-12-09T04:51:58.824Z,88.38
2022-12-09T04:54:33.155Z,88.97
2022-12-09T04:57:03.815Z,88.80
2022-12-09T04:59:34.896Z,88.89
2022-12-09T05:02:05.669Z,88.09
2022-12-09T05:04:36.728Z,88.52
2022-12-09T05:07:07.744Z,88.40
2022-12-09T05:09:41.156Z,88.34
2022-12-09T05:12:12.029Z,87.61
2022-12-09T05:14:42.751Z,87.47
2022-12-09T05:17:13.176Z,87.16
2022-12-09T05:19:44.788Z,86.32
2022-12-09T05:22:15.473Z,86.43
2022-12-09T05:24:49.186Z,86.91
2022-12-09T05:27:19.728Z,87.29
2022-12-09T05:29:50.543Z,87.78
2022-12-09T05:32:21.657Z,87.56
2022-12-09T05:34:52.248Z,87.33
2022-12-09T05:37:22.944Z,87.94
2022-12-09T05:39:55.980Z,85.77
2022-12-09T05:42:26.414Z,85.98
2022-12-09T05:44:57.005Z,86.63
2022-12-09T05:47:27.789Z,86.97
2022-12-09T05:50:01.753Z,87.42
2022-12-09T05:52:39.140Z,87.38
2022-12-09T05:55:14.192Z,87.62
2022-12-09T05:57:44.804Z,87.77
2022-12-09T06:00:17.667Z,87.78
2022-12-09T06:02:48.670Z,88.35
2022-12-09T06:05:19.443Z,87.20
2022-12-09T06:07:50.611Z,87.01
2022-12-09T06:10:24.076Z,86.95
2022-12-09T06:12:57.781Z,85.62
2022-12-09T06:15:33.142Z,85.83
2022-12-09T06:18:04.861Z,86.03
2022-12-09T06:20:35.354Z,86.23
2022-12-09T06:23:05.994Z,86.45
2022-12-09T06:25:39.863Z,86.17
2022-12-09T06:28:10.550Z,85.87
2022-12-09T06:30:41.371Z,85.95
2022-12-09T06:33:29.429Z,86.27
2022-12-09T06:36:04.716Z,86.17
2022-12-09T06:38:35.258Z,86.03
2022-12-09T06:41:12.361Z,85.69
2022-12-09T06:43:44.027Z,85.47
2022-12-09T06:46:16.677Z,85.19
2022-12-09T06:48:48.101Z,85.51
2022-12-09T06:51:19.684Z,86.00
2022-12-09T06:53:50.767Z,85.48
2022-12-09T06:56:24.014Z,84.50
2022-12-09T06:58:54.827Z,83.75
2022-12-09T07:01:27.703Z,82.94
2022-12-09T07:04:00.128Z,83.65
2022-12-09T07:06:33.735Z,84.28
2022-12-09T07:09:07.274Z,84.46
2022-12-09T07:11:42.606Z,85.16
2022-12-09T07:14:14.108Z,85.09
2022-12-09T07:16:45.594Z,85.47
2022-12-09T07:19:20.636Z,85.76
2022-12-09T07:21:52.431Z,86.05
2022-12-09T07:24:23.212Z,86.13
2022-12-09T07:26:56.307Z,86.08
2022-12-09T07:29:26.623Z,85.53
2022-12-09T07:31:57.819Z,85.32
2022-12-09T07:34:28.519Z,84.95
2022-12-09T07:36:59.818Z,85.41
2022-12-09T07:39:30.543Z,85.51
2022-12-09T07:42:03.843Z,85.59
2022-12-09T07:44:35.025Z,85.66
2022-12-09T07:47:05.626Z,84.63
2022-12-09T07:49:36.542Z,84.37
2022-12-09T07:52:07.721Z,83.71
2022-12-09T07:54:38.362Z,83.83
2022-12-09T07:57:11.411Z,82.97
2022-12-09T07:59:42.177Z,82.80
2022-12-09T08:02:13.059Z,83.26
2022-12-09T08:04:44.094Z,82.98
2022-12-09T08:07:14.712Z,82.66
2022-12-09T08:09:45.652Z,81.96
2022-12-09T08:12:19.026Z,82.07
2022-12-09T08:14:49.471Z,83.81
2022-12-09T08:17:21.387Z,84.37
2022-12-09T08:19:52.432Z,82.29
2022-12-09T08:22:23.659Z,80.84
2022-12-09T08:24:54.512Z,79.74
2022-12-09T08:27:27.606Z,79.08
2022-12-09T08:29:58.696Z,78.09
2022-12-09T08:32:29.938Z,77.13
2022-12-09T08:35:00.865Z,77.00
2022-12-09T08:37:31.603Z,77.80
2022-12-09T08:40:02.191Z,78.56
2022-12-09T08:42:35.955Z,78.31
2022-12-09T08:45:07.933Z,78.23
2022-12-09T08:47:38.764Z,77.68
2022-12-09T08:50:11.780Z,76.32
2022-12-09T08:52:42.998Z,75.76
2022-12-09T08:55:13.968Z,75.58
2022-12-09T08:57:47.082Z,75.94
2022-12-09T09:00:19.685Z,75.83
2022-12-09T09:02:50.146Z,76.33
2022-12-09T09:05:21.033Z,76.44
2022-12-09T09:07:52.303Z,74.87
2022-12-09T09:10:22.703Z,74.50
2022-12-09T09:12:56.210Z,74.88
2022-12-09T09:15:27.029Z,75.08
2022-12-09T09:17:58.114Z,74.52
2022-12-09T09:20:28.878Z,74.26
2022-12-09T09:23:03.032Z,74.29
2022-12-09T09:25:35.139Z,73.54
2022-12-09T09:28:08.714Z,74.43
2022-12-09T09:30:40.394Z,74.49
2022-12-09T09:33:12.248Z,74.08
2022-12-09T09:35:43.042Z,73.16
2022-12-09T09:38:13.885Z,72.46
2022-12-09T09:40:45.134Z,70.78
2022-12-09T09:43:23.077Z,68.29
2022-12-09T09:45:55.222Z,66.70
2022-12-09T09:48:30.372Z,65.93
2022-12-09T09:51:06.757Z,65.08
2022-12-09T09:53:40.477Z,64.06
2022-12-09T09:56:30.004Z,62.82
2022-12-09T09:59:19.543Z,62.63
2022-12-09T10:02:05.778Z,62.24
2022-12-09T10:04:52.969Z,61.97
2022-12-09T10:07:32.318Z,61.42
2022-12-09T10:10:19.183Z,60.75
2022-12-09T10:13:14.289Z,59.02
2022-12-09T10:16:12.269Z,55.26
2022-12-09T10:18:52.783Z,55.51
2022-12-09T10:21:25.145Z,56.25
2022-12-09T10:23:57.853Z,56.64
2022-12-09T10:26:32.693Z,57.58
2022-12-09T10:29:16.811Z,57.66
2022-12-09T10:31:49.996Z,58.65
2022-12-09T10:34:20.499Z,57.82
2022-12-09T10:36:51.950Z,58.51
2022-12-09T10:39:24.870Z,59.24
2022-12-09T10:42:24.173Z,59.31
2022-12-09T10:45:09.385Z,60.13
2022-12-09T10:47:43.103Z,60.68
2022-12-09T10:50:34.302Z,60.81
2022-12-09T10:53:10.685Z,61.05
2022-12-09T10:55:44.848Z,60.63
2022-12-09T10:58:21.119Z,60.41
2022-12-09T11:01:12.099Z,60.58
2022-12-09T11:03:52.571Z,60.30
2022-12-09T11:06:28.612Z,60.72
2022-12-09T11:09:02.196Z,59.84
2022-12-09T11:11:46.369Z,59.28
2022-12-09T11:14:27.236Z,59.48
2022-12-09T11:17:01.222Z,58.69
2022-12-09T11:19:40.735Z,55.94
2022-12-09T11:22:33.745Z,56.01
2022-12-09T11:25:24.956Z,54.33
2022-12-09T11:27:59.086Z,53.31
2022-12-09T11:30:33.413Z,52.25
2022-12-09T11:33:11.516Z,53.26
2022-12-09T11:35:59.117Z,52.82
2022-12-09T11:38:40.620Z,53.23
2022-12-09T11:41:43.269Z,50.10
2022-12-09T11:44:27.948Z,50.65
2022-12-09T11:47:03.494Z,51.38
2022-12-09T11:49:39.782Z,52.37
2022-12-09T11:52:30.191Z,52.28
2022-12-09T11:55:15.469Z,52.23
2022-12-09T11:57:52.427Z,52.82
2022-12-09T12:00:27.500Z,53.08
2022-12-09T12:03:07.483Z,52.31
2022-12-09T12:05:42.228Z,51.66
2022-12-09T12:08:27.070Z,52.56
2022-12-09T12:11:02.978Z,53.72
2022-12-09T12:13:41.983Z,53.64
2022-12-09T12:16:16.349Z,53.23
2022-12-09T12:18:51.857Z,51.99
2022-12-09T12:21:47.336Z,50.49
2022-12-09T12:24:44.577Z,47.69
2022-12-09T12:27:29.973Z,45.19
2022-12-09T12:30:05.401Z,42.18
2022-12-09T12:33:53.114Z,39.50
2022-12-09T12:36:04.274Z,40.59
2022-12-09T12:38:52.787Z,43.30
2022-12-09T12:41:37.779Z,45.39
2022-12-09T12:44:48.080Z,46.52
2022-12-09T12:47:26.290Z,48.74
2022-12-09T12:50:16.971Z,50.20
2022-12-09T12:52:56.841Z,51.19
2022-12-09T12:55:46.649Z,52.82
2022-12-09T12:58:34.524Z,53.94
2022-12-09T13:01:11.158Z,54.15
2022-12-09T13:03:53.841Z,54.26
2022-12-09T13:06:33.268Z,54.14
2022-12-09T13:09:08.805Z,54.49
2022-12-09T13:11:52.280Z,55.22
2022-12-09T13:14:33.226Z,55.28
2022-12-09T13:17:04.900Z,54.88
2022-12-09T13:19:43.250Z,55.73
2022-12-09T13:22:23.551Z,55.63
2022-12-09T13:25:03.775Z,56.04
2022-12-09T13:27:41.401Z,56.48
2022-12-09T13:30:21.450Z,56.36
2022-12-09T13:33:25.519Z,56.31
2022-12-09T13:36:06.714Z,57.53
2022-12-09T13:38:39.974Z,58.21
2022-12-09T13:41:56.205Z,57.41
2022-12-09T13:44:34.236Z,58.28
2022-12-09T13:47:32.002Z,58.54
2022-12-09T13:50:06.224Z,58.47
2022-12-09T13:52:48.031Z,58.44
2022-12-09T13:55:35.167Z,58.67
2022-12-09T13:58:33.590Z,59.03
2022-12-09T14:01:15.716Z,59.72
2022-12-09T14:04:00.310Z,59.88
2022-12-09T14:06:35.374Z,59.73
2022-12-09T14:09:23.581Z,60.36
2022-12-09T14:11:55.551Z,61.00
2022-12-09T14:14:58.617Z,60.80
2022-12-09T14:18:04.870Z,61.21
2022-12-09T14:20:42.838Z,61.16
2022-12-09T14:23:21.347Z,61.90
2022-12-09T14:26:11.500Z,61.84
2022-12-09T14:29:03.170Z,62.40
2022-12-09T14:32:02.963Z,62.59
2022-12-09T14:34:39.413Z,62.72
2022-12-09T14:37:51.052Z,63.17
2022-12-09T14:40:52.297Z,64.04
2022-12-09T14:43:48.460Z,64.19
2022-12-09T14:46:30.033Z,64.30
2022-12-09T14:49:06.039Z,65.08
2022-12-09T14:51:39.756Z,65.29
2022-12-09T14:54:20.270Z,65.48
2022-12-09T14:56:54.677Z,65.43
2022-12-09T14:59:28.748Z,65.06
2022-12-09T15:02:03.174Z,65.35
2022-12-09T15:04:36.134Z,66.26
2022-12-09T15:07:12.353Z,66.07
2022-12-09T15:09:56.322Z,66.23
2022-12-09T15:12:33.269Z,66.41
2022-12-09T15:15:10.796Z,66.51
2022-12-09T15:17:46.124Z,66.92
2022-12-09T15:20:32.242Z,66.77
2022-12-09T15:23:06.905Z,66.91
2022-12-09T15:25:52.220Z,67.17
2022-12-09T15:31:21.112Z,68.28
2022-12-09T15:33:53.709Z,68.21
2022-12-09T15:36:28.729Z,68.09
2022-12-09T15:39:04.850Z,68.51
2022-12-09T15:41:54.332Z,68.74
2022-12-09T15:44:26.950Z,68.64
2022-12-09T15:47:04.319Z,68.88
2022-12-09T15:49:42.749Z,68.85
2022-12-09T15:52:15.077Z,69.05
2022-12-09T15:54:48.100Z,69.56
2022-12-09T15:57:23.429Z,69.64
2022-12-09T15:59:59.005Z,69.74
2022-12-09T16:02:33.695Z,69.91
2022-12-09T16:05:08.056Z,69.69
2022-12-09T16:07:38.808Z,69.83
2022-12-09T16:10:14.877Z,69.78
2022-12-09T16:12:48.024Z,70.00
2022-12-09T16:15:53.686Z,69.88
2022-12-09T16:18:28.253Z,70.06
2022-12-09T16:21:10.737Z,70.11
2022-12-09T16:23:41.108Z,70.77
2022-12-09T16:26:20.619Z,71.41
2022-12-09T16:29:02.189Z,72.03
2022-12-09T16:31:33.116Z,72.23
2022-12-09T16:34:03.766Z,72.58
2022-12-09T16:36:35.374Z,72.79
2022-12-09T16:39:38.247Z,73.33
2022-12-09T16:42:25.273Z,73.32
2022-12-09T16:45:27.081Z,73.97
2022-12-09T16:47:58.189Z,74.77
2022-12-09T16:50:34.864Z,75.12
2022-12-09T16:53:07.923Z,75.41
2022-12-09T16:55:38.307Z,76.14
2022-12-09T16:58:08.769Z,76.55
2022-12-09T17:00:41.790Z,76.62
2022-12-09T17:03:21.660Z,76.80
2022-12-09T17:05:52.005Z,76.92
2022-12-09T17:08:22.501Z,77.06
2022-12-09T17:10:52.911Z,77.05
2022-12-09T17:13:23.365Z,77.24
2022-12-09T17:15:58.643Z,77.45
2022-12-09T17:18:29.715Z,77.34
2022-12-09T17:21:04.138Z,77.72
2022-12-09T17:23:39.704Z,77.97
2022-12-09T17:26:13.272Z,78.08
2022-12-09T17:28:44.681Z,78.14
2022-12-09T17:31:22.459Z,78.19
2022-12-09T17:33:53.935Z,78.21
2022-12-09T17:36:24.249Z,78.52
2022-12-09T17:38:54.685Z,78.39
2022-12-09T17:41:25.134Z,78.41
2022-12-09T17:43:57.856Z,78.58
2022-12-09T17:46:31.136Z,78.70
2022-12-09T17:50:25.374Z,78.90
2022-12-09T17:52:55.774Z,78.82
2022-12-09T17:55:26.242Z,78.69
2022-12-09T17:57:56.649Z,79.02
2022-12-09T18:00:27.184Z,79.11
2022-12-09T18:03:00.146Z,79.26
2022-12-09T18:05:30.364Z,79.60
2022-12-09T18:08:00.774Z,79.86
2022-12-09T18:10:37.116Z,79.67
2022-12-09T18:13:08.811Z,79.66
2022-12-09T18:15:40.272Z,79.89
2022-12-09T18:18:13.230Z,79.84
2022-12-09T18:20:43.561Z,79.86
2022-12-09T18:23:14.725Z,80.05
2022-12-09T18:25:46.227Z,80.17
2022-12-09T18:28:16.584Z,80.09
2022-12-09T18:30:47.232Z,80.12
2022-12-09T18:33:20.494Z,80.08
2022-12-09T18:35:50.990Z,80.46
2022-12-09T18:38:24.260Z,80.46
2022-12-09T18:41:06.559Z,80.71
2022-12-09T18:43:41.189Z,80.70
2022-12-09T18:46:14.122Z,80.74
2022-12-09T18:48:47.403Z,80.99
2022-12-09T18:51:19.815Z,81.07
2022-12-09T18:53:51.134Z,81.58
2022-12-09T18:56:21.288Z,82.23
2022-12-09T18:59:08.735Z,82.32
2022-12-09T19:01:42.309Z,82.75
2022-12-09T19:04:19.774Z,83.27
2022-12-09T19:06:52.488Z,83.79
2022-12-09T19:09:25.108Z,84.22
2022-12-09T19:11:56.980Z,84.41
2022-12-09T19:14:27.975Z,84.81
2022-12-09T19:16:58.540Z,85.12
2022-12-09T19:19:31.909Z,85.15
2022-12-09T19:22:03.731Z,85.21
2022-12-09T19:24:41.347Z,85.29
2022-12-09T19:27:13.532Z,85.24
2022-12-09T19:29:44.018Z,85.14
2022-12-09T19:32:51.040Z,84.97
2022-12-09T19:35:09.012Z,84.97
2022-12-09T19:37:39.296Z,84.76
2022-12-09T19:40:12.765Z,84.65
2022-12-09T19:42:43.023Z,84.61
2022-12-09T19:45:14.790Z,84.13
2022-12-09T19:47:45.161Z,84.53
2022-12-09T19:50:18.172Z,84.49
2022-12-09T19:52:48.586Z,84.91
2022-12-09T19:55:19.078Z,84.35
2022-12-09T19:57:49.461Z,84.35
2022-12-09T20:00:20.571Z,84.40
2022-12-09T20:02:51.572Z,84.34
2022-12-09T20:05:24.748Z,84.15
2022-12-09T20:07:55.075Z,84.16
2022-12-09T20:10:25.395Z,83.69
2022-12-09T20:12:55.859Z,83.34
2022-12-09T20:15:26.186Z,83.69
2022-12-09T20:17:57.049Z,83.08
2022-12-09T20:20:30.023Z,83.26
2022-12-09T20:23:00.548Z,83.07
2022-12-09T20:25:31.110Z,83.16
2022-12-09T20:28:01.487Z,82.96
2022-12-09T20:30:32.967Z,82.79
2022-12-09T20:33:03.244Z,82.69
2022-12-09T20:35:39.001Z,83.23
2022-12-09T20:38:09.271Z,83.44
2022-12-09T20:40:40.920Z,83.60
2022-12-09T20:43:11.414Z,83.15
2022-12-09T20:45:42.031Z,83.57
2022-12-09T20:48:13.143Z,83.66
2022-12-09T20:50:46.131Z,83.88
2022-12-09T20:53:16.433Z,84.12
2022-12-09T20:55:46.744Z,84.09
2022-12-09T20:58:17.063Z,84.09
2022-12-09T21:00:47.389Z,83.97
2022-12-09T21:03:17.911Z,83.90
2022-12-09T21:05:50.989Z,83.68
2022-12-09T21:08:21.357Z,83.40
2022-12-09T21:10:51.918Z,83.18
2022-12-09T21:13:22.493Z,82.85
2022-12-09T21:15:53.023Z,82.73
2022-12-09T21:18:23.491Z,82.60
2022-12-09T21:20:59.068Z,82.61
2022-12-09T21:23:34.115Z,82.84
2022-12-09T21:26:08.395Z,82.52
2022-12-09T21:28:40.128Z,82.18
2022-12-09T21:31:12.137Z,82.23
2022-12-09T21:33:43.872Z,82.00
2022-12-09T21:36:18.957Z,81.85
2022-12-09T21:38:49.305Z,82.22
2022-12-09T21:41:22.639Z,81.43
2022-12-09T21:43:55.119Z,81.10
2022-12-09T21:46:27.782Z,80.91
2022-12-09T21:49:03.555Z,81.06
2022-12-09T21:51:38.047Z,80.53
2022-12-09T21:54:09.096Z,80.44
2022-12-09T21:56:39.654Z,79.97
2022-12-09T21:59:11.047Z,79.87
2022-12-09T22:01:44.281Z,80.00
2022-12-09T22:04:18.044Z,79.94
2022-12-09T22:06:53.391Z,80.14
2022-12-09T22:09:24.753Z,80.31
2022-12-09T22:11:55.053Z,79.65
2022-12-09T22:14:25.462Z,79.82
2022-12-09T22:16:55.774Z,80.25
2022-12-09T22:19:27.592Z,80.01
2022-12-09T22:22:04.588Z,79.76
2022-12-09T22:24:37.790Z,80.22
2022-12-09T22:27:08.218Z,80.66
2022-12-09T22:29:38.628Z,80.70
2022-12-09T22:32:09.208Z,80.81
2022-12-09T22:34:39.971Z,81.10
2022-12-09T22:37:41.862Z,81.37
2022-12-09T22:40:03.453Z,81.13
2022-12-09T22:42:33.795Z,81.05
2022-12-09T22:45:04.164Z,80.92
2022-12-09T22:47:34.578Z,80.67
2022-12-09T22:50:05.001Z,80.41
2022-12-09T22:52:37.954Z,80.14
2022-12-09T22:55:09.654Z,80.16
2022-12-09T22:57:39.945Z,80.09
2022-12-09T23:00:13.280Z,80.63
2022-12-09T23:02:44.189Z,80.69
2022-12-09T23:05:14.706Z,80.68
2022-12-09T23:07:47.667Z,80.01
2022-12-09T23:10:18.159Z,80.19
2022-12-09T23:12:48.452Z,79.84
2022-12-09T23:15:19.005Z,80.10
2022-12-09T23:17:49.308Z,80.38
2022-12-09T23:20:19.915Z,80.53
2022-12-09T23:22:52.871Z,80.34
2022-12-09T23:25:23.384Z,80.53
2022-12-09T23:27:53.828Z,80.26
2022-12-09T23:30:24.223Z,80.54
2022-12-09T23:32:54.492Z,80.41
2022-12-09T23:35:24.797Z,80.26
2022-12-09T23:37:57.677Z,80.16
2022-12-09T23:40:27.918Z,80.52
2022-12-09T23:42:58.234Z,80.34
2022-12-09T23:45:28.575Z,80.65
2022-12-09T23:47:58.885Z,80.48
2022-12-09T23:50:29.224Z,80.36
2022-12-09T23:53:02.097Z,80.11
2022-12-09T23:55:32.998Z,80.32
2022-12-09T23:58:03.421Z,80.62
